Time;durP1;ratioP1;P1;durP2;ratioP2;P2;SDS_P1;SDS_P2;PMS_P1;PMS_P2;Temp;Humidity;BMP_temperature;BMP_pressure;BME280_temperature;BME280_humidity;BME280_pressure;Samples;Min_cycle;Max_cycle;Signal;HPM_P1;HPM_P2
2022/05/20 00:00:41;;;;;;;28.13;23.00;;;18.00;99.90;;;;;;5074213;28;20032;-68
2022/05/20 00:03:07;;;;;;;29.67;23.50;;;18.00;99.90;;;;;;5075115;28;20029;-67
2022/05/20 00:05:33;;;;;;;29.05;23.98;;;17.90;99.90;;;;;;5076246;28;20081;-67
2022/05/20 00:07:59;;;;;;;31.73;27.40;;;17.90;99.90;;;;;;5075451;28;20024;-68
2022/05/20 00:10:27;;;;;;;31.45;26.70;;;17.90;99.90;;;;;;5077069;28;20479;-67
2022/05/20 00:12:53;;;;;;;36.22;27.05;;;17.80;99.90;;;;;;5066525;28;20043;-68
2022/05/20 00:15:21;;;;;;;32.75;25.98;;;17.80;99.90;;;;;;5072678;28;20036;-68
2022/05/20 00:17:48;;;;;;;34.35;28.17;;;17.80;99.90;;;;;;5074770;28;20033;-67
2022/05/20 00:20:16;;;;;;;37.38;29.75;;;17.70;99.90;;;;;;5076709;28;20042;-67
2022/05/20 00:22:43;;;;;;;36.28;28.67;;;17.70;99.90;;;;;;5074840;28;20117;-67
2022/05/20 00:27:55;;;;;;;34.05;27.73;;;17.60;99.90;;;;;;5073384;28;20054;-67
2022/05/20 00:30:20;;;;;;;37.30;28.85;;;17.50;99.90;;;;;;5076161;28;20029;-67
2022/05/20 00:32:46;;;;;;;34.78;27.38;;;17.50;99.90;;;;;;5074483;28;20111;-68
2022/05/20 00:35:13;;;;;;;33.67;27.63;;;17.50;99.90;;;;;;5068865;28;20044;-67
2022/05/20 00:37:40;;;;;;;35.20;28.88;;;17.50;99.90;;;;;;5072799;28;20035;-67
2022/05/20 00:40:09;;;;;;;39.83;30.50;;;17.50;99.90;;;;;;5062143;28;20035;-68
2022/05/20 00:42:35;;;;;;;38.95;30.98;;;17.40;99.90;;;;;;5056934;28;20029;-67
2022/05/20 00:45:03;;;;;;;41.67;31.50;;;17.40;99.90;;;;;;5056953;28;20057;-67
2022/05/20 00:47:29;;;;;;;45.95;33.47;;;17.40;99.90;;;;;;5066946;28;20028;-67
2022/05/20 00:49:58;;;;;;;40.28;32.28;;;17.40;99.90;;;;;;5058764;28;20035;-67
2022/05/20 00:52:29;;;;;;;41.33;34.63;;;17.30;99.90;;;;;;5062524;28;20060;-67
2022/05/20 00:54:59;;;;;;;39.00;34.38;;;17.30;99.90;;;;;;5063174;28;20040;-67
2022/05/20 00:57:32;;;;;;;41.10;34.20;;;17.40;99.90;;;;;;5061962;28;20085;-68
2022/05/20 01:00:04;;;;;;;39.42;31.95;;;17.30;99.90;;;;;;5061190;28;20041;-67
2022/05/20 01:02:33;;;;;;;39.65;32.17;;;17.30;99.90;;;;;;5059650;28;20033;-68
2022/05/20 01:05:00;;;;;;;41.83;32.38;;;17.20;99.90;;;;;;5061931;28;20029;-68
2022/05/20 01:07:28;;;;;;;40.05;31.92;;;17.20;99.90;;;;;;5064424;28;20133;-68
2022/05/20 01:09:54;;;;;;;40.17;33.65;;;17.20;99.90;;;;;;5058643;28;20036;-68
2022/05/20 01:12:24;;;;;;;42.30;32.88;;;17.20;99.90;;;;;;5064899;28;20426;-68
2022/05/20 01:14:51;;;;;;;41.85;35.10;;;17.20;99.90;;;;;;5062831;28;20044;-68
2022/05/20 01:17:19;;;;;;;39.95;31.10;;;17.20;99.90;;;;;;5065286;28;20106;-68
2022/05/20 01:19:54;;;;;;;36.80;31.50;;;17.10;99.90;;;;;;5063677;28;20507;-67
2022/05/20 01:22:48;;;;;;;39.17;30.17;;;17.10;99.90;;;;;;5060877;28;20021;-67
2022/05/20 01:25:14;;;;;;;37.95;30.83;;;17.10;99.90;;;;;;5066110;28;20029;-68
2022/05/20 01:27:43;;;;;;;41.30;30.13;;;17.10;99.90;;;;;;5058132;28;20101;-67
2022/05/20 01:30:11;;;;;;;44.03;32.05;;;17.00;99.90;;;;;;5061209;28;20455;-67
2022/05/20 01:32:37;;;;;;;41.25;31.38;;;16.90;99.90;;;;;;5061066;28;20043;-67
2022/05/20 01:35:05;;;;;;;46.45;33.42;;;16.90;99.90;;;;;;5062434;28;20024;-68
2022/05/20 01:37:31;;;;;;;40.83;31.75;;;16.90;99.90;;;;;;5061424;28;20485;-67
2022/05/20 01:40:00;;;;;;;41.58;32.40;;;16.70;99.90;;;;;;5058892;28;20102;-67
2022/05/20 01:42:37;;;;;;;40.45;33.30;;;16.70;99.90;;;;;;5065217;28;20082;-68
2022/05/20 01:45:10;;;;;;;41.63;31.65;;;16.80;99.90;;;;;;5060644;28;20041;-68
2022/05/20 01:48:02;;;;;;;42.65;32.90;;;16.90;99.90;;;;;;5059136;28;20093;-68
2022/05/20 01:50:38;;;;;;;37.72;29.42;;;16.80;99.90;;;;;;5069587;28;20027;-68
2022/05/20 01:53:10;;;;;;;39.22;30.83;;;16.80;99.90;;;;;;5065920;28;20082;-68
2022/05/20 01:55:58;;;;;;;36.58;29.45;;;16.60;99.90;;;;;;5066622;28;20492;-68
2022/05/20 01:58:31;;;;;;;36.63;27.65;;;16.60;99.90;;;;;;5079136;28;20036;-68
2022/05/20 02:01:03;;;;;;;39.50;29.00;;;16.70;99.90;;;;;;5076227;28;20037;-67
2022/05/20 02:03:44;;;;;;;34.67;27.88;;;16.70;99.90;;;;;;5076834;28;20041;-67
2022/05/20 02:06:24;;;;;;;42.67;31.88;;;16.70;99.90;;;;;;5078748;28;20031;-68
2022/05/20 02:09:08;;;;;;;37.40;29.80;;;16.60;99.90;;;;;;5076782;28;20503;-68
2022/05/20 02:11:39;;;;;;;44.95;32.30;;;16.60;99.90;;;;;;5072990;28;20090;-67
2022/05/20 02:14:10;;;;;;;43.88;31.58;;;16.70;99.90;;;;;;5078731;28;20033;-67
2022/05/20 02:16:42;;;;;;;39.23;31.90;;;16.60;99.90;;;;;;5074114;28;20078;-67
2022/05/20 02:19:15;;;;;;;42.25;31.83;;;16.50;99.90;;;;;;5073496;28;20064;-67
2022/05/20 02:21:45;;;;;;;33.80;27.70;;;16.40;99.90;;;;;;5072677;28;20480;-67
2022/05/20 02:24:15;;;;;;;37.30;29.50;;;16.40;99.90;;;;;;5073445;28;20075;-67
2022/05/20 02:26:50;;;;;;;42.55;31.10;;;16.50;99.90;;;;;;5075622;28;20060;-67
2022/05/20 02:29:26;;;;;;;35.03;28.48;;;16.50;99.90;;;;;;5076596;28;20032;-67
2022/05/20 02:32:28;;;;;;;37.92;30.90;;;16.50;99.90;;;;;;5081459;28;20027;-67
2022/05/20 02:34:53;;;;;;;35.22;28.80;;;16.40;99.90;;;;;;5077699;28;20050;-67
2022/05/20 02:37:24;;;;;;;39.05;29.65;;;16.40;99.90;;;;;;5076762;28;20032;-68
2022/05/20 02:39:50;;;;;;;37.22;28.50;;;16.40;99.90;;;;;;5076758;28;20051;-68
2022/05/20 02:42:16;;;;;;;37.90;30.17;;;16.30;99.90;;;;;;5074199;28;20086;-67
2022/05/20 02:44:42;;;;;;;36.88;29.58;;;16.30;99.90;;;;;;5077069;28;20192;-67
2022/05/20 02:47:08;;;;;;;41.85;31.52;;;16.30;99.90;;;;;;5077125;28;20477;-67
2022/05/20 02:49:35;;;;;;;41.45;31.92;;;16.20;99.90;;;;;;5076827;28;20032;-67
2022/05/20 02:52:01;;;;;;;45.40;34.95;;;16.20;99.90;;;;;;5077701;28;20063;-67
2022/05/20 02:54:26;;;;;;;39.55;31.98;;;16.20;99.90;;;;;;5076434;28;20031;-67
2022/05/20 02:56:52;;;;;;;42.50;32.40;;;16.30;99.90;;;;;;5076137;28;20040;-67
2022/05/20 03:04:47;;;;;;;38.95;30.40;;;16.20;99.90;;;;;;5074705;28;20123;-67
2022/05/20 03:07:13;;;;;;;42.45;33.72;;;16.20;99.90;;;;;;5078565;28;20116;-67
2022/05/20 03:09:39;;;;;;;39.63;30.70;;;16.20;99.90;;;;;;5076357;28;20506;-68
2022/05/20 03:12:06;;;;;;;44.42;32.20;;;16.10;99.90;;;;;;5075445;28;20036;-68
2022/05/20 03:14:32;;;;;;;42.08;29.15;;;16.10;99.90;;;;;;5076131;28;20032;-68
2022/05/20 03:17:02;;;;;;;40.10;31.17;;;16.00;99.90;;;;;;5077396;28;20086;-67
2022/05/20 03:19:30;;;;;;;44.10;33.22;;;16.00;99.90;;;;;;5073718;28;20545;-67
2022/05/20 03:22:00;;;;;;;32.92;26.92;;;16.00;99.90;;;;;;5076373;28;20123;-67
2022/05/20 03:24:26;;;;;;;37.00;28.63;;;16.00;99.90;;;;;;5074896;28;20031;-67
2022/05/20 03:26:52;;;;;;;32.00;27.48;;;16.00;99.90;;;;;;5072291;28;20504;-67
2022/05/20 03:29:18;;;;;;;35.58;25.90;;;16.00;99.90;;;;;;5076041;28;20064;-67
2022/05/20 03:31:44;;;;;;;38.83;28.42;;;15.90;99.90;;;;;;5075782;28;20040;-67
2022/05/20 03:34:10;;;;;;;40.67;30.73;;;15.90;99.90;;;;;;5076784;28;20067;-67
2022/05/20 03:36:39;;;;;;;41.45;29.65;;;15.90;99.90;;;;;;5075868;28;20512;-68
2022/05/20 03:39:06;;;;;;;40.55;29.90;;;15.80;99.90;;;;;;5075737;28;20024;-68
2022/05/20 03:41:33;;;;;;;51.10;33.30;;;15.80;99.90;;;;;;5074241;28;20123;-67
2022/05/20 03:43:59;;;;;;;56.90;37.50;;;15.70;99.90;;;;;;5075759;28;20498;-67
2022/05/20 03:46:25;;;;;;;53.33;37.65;;;15.70;99.90;;;;;;5076346;28;20036;-67
2022/05/20 03:48:51;;;;;;;51.60;33.15;;;15.80;99.90;;;;;;5074648;28;20020;-67
2022/05/20 03:51:17;;;;;;;41.33;29.73;;;15.70;99.90;;;;;;5075493;28;20032;-67
2022/05/20 03:53:43;;;;;;;41.30;31.20;;;15.70;99.90;;;;;;5075773;28;20037;-67
2022/05/20 03:56:09;;;;;;;42.08;30.92;;;15.60;99.90;;;;;;5077230;28;20039;-67
2022/05/20 03:58:36;;;;;;;43.00;29.95;;;15.70;99.90;;;;;;5073994;28;20047;-68
2022/05/20 04:03:47;;;;;;;37.33;27.98;;;15.80;99.90;;;;;;5070475;28;20057;-67
2022/05/20 04:06:13;;;;;;;40.90;29.13;;;15.80;99.90;;;;;;5075646;28;20390;-67
2022/05/20 04:08:39;;;;;;;43.95;30.50;;;15.80;99.90;;;;;;5075572;28;20112;-67
2022/05/20 04:11:06;;;;;;;58.78;36.72;;;15.90;99.90;;;;;;5066607;28;20111;-68
2022/05/20 04:13:32;;;;;;;57.83;38.17;;;15.80;99.90;;;;;;5074160;28;20060;-67
2022/05/20 04:15:58;;;;;;;53.00;36.15;;;15.70;99.90;;;;;;5075857;28;20035;-67
2022/05/20 04:18:24;;;;;;;53.45;37.30;;;15.70;99.90;;;;;;5075674;28;20028;-68
2022/05/20 04:20:50;;;;;;;57.72;39.35;;;15.70;99.90;;;;;;5074905;28;20040;-68
2022/05/20 04:23:17;;;;;;;60.90;42.35;;;15.70;99.90;;;;;;5075823;28;20033;-67
2022/05/20 04:25:44;;;;;;;54.92;37.67;;;15.70;99.90;;;;;;5071017;28;20123;-68
2022/05/20 04:28:11;;;;;;;57.58;38.88;;;15.80;99.90;;;;;;5072141;28;20473;-68
2022/05/20 04:30:37;;;;;;;59.22;39.17;;;15.70;99.90;;;;;;5075634;28;20036;-67
2022/05/20 04:33:03;;;;;;;58.38;40.05;;;15.70;99.90;;;;;;5074906;28;20115;-67
2022/05/20 04:35:28;;;;;;;54.90;38.10;;;15.70;99.90;;;;;;5074352;28;20170;-68
2022/05/20 04:37:54;;;;;;;56.72;40.22;;;15.70;99.90;;;;;;5074349;28;20033;-68
2022/05/20 04:40:20;;;;;;;57.75;38.85;;;15.80;99.90;;;;;;5072951;28;20090;-68
2022/05/20 04:48:14;;;;;;;59.47;39.72;;;15.90;99.90;;;;;;5069902;28;20068;-67
2022/05/20 04:50:40;;;;;;;59.38;39.30;;;16.00;99.90;;;;;;5074688;28;20033;-68
2022/05/20 04:53:06;;;;;;;67.68;45.08;;;16.00;99.90;;;;;;5074028;28;20028;-68
2022/05/20 04:55:32;;;;;;;58.25;40.67;;;16.00;99.90;;;;;;5073024;28;20031;-68
2022/05/20 04:57:59;;;;;;;66.85;45.40;;;16.00;99.90;;;;;;5074260;28;20029;-68
2022/05/20 05:00:30;;;;;;;55.92;40.10;;;16.10;99.90;;;;;;5073321;28;20499;-68
2022/05/20 05:02:56;;;;;;;58.85;42.88;;;16.20;99.90;;;;;;5073198;28;20052;-68
2022/05/20 05:05:24;;;;;;;55.20;41.22;;;16.20;99.90;;;;;;5076050;28;20035;-68
2022/05/20 05:07:52;;;;;;;57.63;40.88;;;16.20;99.90;;;;;;5073426;28;20033;-68
2022/05/20 05:10:23;;;;;;;62.13;44.83;;;16.30;99.90;;;;;;5074272;28;20029;-68
2022/05/20 05:12:49;;;;;;;56.38;39.97;;;16.40;99.90;;;;;;5069233;28;20033;-69
2022/05/20 05:15:15;;;;;;;61.70;44.17;;;16.40;99.90;;;;;;5074766;28;20095;-68
2022/05/20 05:20:28;;;;;;;64.53;45.38;;;16.50;99.90;;;;;;5072668;28;20085;-69
2022/05/20 05:22:56;;;;;;;61.58;44.50;;;16.50;99.90;;;;;;5073177;28;20476;-68
2022/05/20 05:25:25;;;;;;;60.85;45.20;;;16.50;99.90;;;;;;5074294;28;20063;-68
2022/05/20 05:27:52;;;;;;;65.68;45.60;;;16.60;99.90;;;;;;5072946;28;20020;-68
2022/05/20 05:30:18;;;;;;;64.63;44.45;;;16.60;99.90;;;;;;5074042;28;20055;-68
2022/05/20 05:32:44;;;;;;;66.35;45.67;;;16.60;99.90;;;;;;5073111;28;20139;-68
2022/05/20 05:35:13;;;;;;;70.40;47.95;;;16.70;99.90;;;;;;5073763;28;20081;-68
2022/05/20 05:37:40;;;;;;;64.60;47.30;;;16.70;99.90;;;;;;5072830;28;20039;-69
2022/05/20 05:40:09;;;;;;;70.55;49.13;;;16.70;99.90;;;;;;5074243;28;20038;-68
2022/05/20 05:42:35;;;;;;;74.35;50.78;;;16.80;99.90;;;;;;5072632;28;20032;-68
2022/05/20 05:45:01;;;;;;;70.03;49.45;;;16.70;99.90;;;;;;5072990;28;20071;-68
2022/05/20 05:47:27;;;;;;;72.22;53.00;;;16.80;99.90;;;;;;5075154;28;20030;-69
2022/05/20 05:49:53;;;;;;;70.63;52.13;;;16.80;99.90;;;;;;5073433;28;20036;-68
2022/05/20 05:52:18;;;;;;;72.35;51.25;;;16.90;99.90;;;;;;5077838;28;20032;-68
2022/05/20 05:54:44;;;;;;;74.03;51.42;;;17.00;99.90;;;;;;5070226;28;20029;-69
2022/05/20 05:57:09;;;;;;;75.85;53.58;;;17.10;99.90;;;;;;5071300;28;20469;-68
2022/05/20 05:59:37;;;;;;;73.72;52.08;;;17.20;99.90;;;;;;5074226;28;20051;-68
2022/05/20 06:02:04;;;;;;;72.28;53.35;;;17.20;99.90;;;;;;5071771;28;20025;-68
2022/05/20 06:04:30;;;;;;;76.38;56.13;;;17.30;99.90;;;;;;5072833;28;20040;-69
2022/05/20 06:06:56;;;;;;;73.97;54.88;;;17.40;99.90;;;;;;5063807;28;20025;-68
2022/05/20 06:09:22;;;;;;;76.72;53.05;;;17.40;99.90;;;;;;5072236;28;20476;-68
2022/05/20 06:11:49;;;;;;;71.90;52.33;;;17.50;99.90;;;;;;5066957;28;20028;-68
2022/05/20 06:14:16;;;;;;;69.60;51.30;;;17.50;99.90;;;;;;5074367;28;20135;-69
2022/05/20 06:16:42;;;;;;;74.78;52.38;;;17.50;99.90;;;;;;5073724;28;20028;-68
2022/05/20 06:19:08;;;;;;;78.10;54.00;;;17.50;99.90;;;;;;5074502;28;20541;-68
2022/05/20 06:21:33;;;;;;;74.25;53.42;;;17.50;99.90;;;;;;5072214;28;20036;-68
2022/05/20 06:24:01;;;;;;;73.57;50.85;;;17.50;99.90;;;;;;5070937;28;20016;-69
2022/05/20 06:26:28;;;;;;;65.72;48.28;;;17.50;99.90;;;;;;5072102;28;20055;-68
2022/05/20 06:28:54;;;;;;;60.58;46.10;;;17.50;99.90;;;;;;5070798;28;20036;-68
2022/05/20 06:31:19;;;;;;;52.55;36.03;;;17.50;99.90;;;;;;5072825;28;20043;-68
2022/05/20 06:33:46;;;;;;;52.75;39.47;;;17.50;99.90;;;;;;5074021;28;20029;-68
2022/05/20 06:41:40;;;;;;;46.13;33.13;;;17.70;99.90;;;;;;5074621;28;20040;-68
2022/05/20 06:44:06;;;;;;;33.28;25.52;;;17.70;99.90;;;;;;5067520;28;20033;-69
2022/05/20 06:46:31;;;;;;;36.47;26.67;;;17.70;99.90;;;;;;5066318;28;20028;-68
2022/05/20 06:48:57;;;;;;;40.75;29.42;;;17.80;99.90;;;;;;5076172;28;20123;-69
2022/05/20 06:51:26;;;;;;;38.53;30.17;;;17.80;99.90;;;;;;5077389;28;20464;-68
2022/05/20 06:53:53;;;;;;;36.38;28.05;;;18.00;99.90;;;;;;5070265;28;20086;-69
2022/05/20 06:56:21;;;;;;;34.72;23.85;;;18.10;99.90;;;;;;5075581;28;20025;-69
2022/05/20 06:58:47;;;;;;;28.52;20.05;;;18.20;99.90;;;;;;5063706;28;20029;-68
2022/05/20 07:01:14;;;;;;;31.52;23.15;;;18.20;99.90;;;;;;5069058;28;20083;-68
2022/05/20 07:03:40;;;;;;;25.60;17.60;;;18.30;99.90;;;;;;5070757;28;20455;-68
2022/05/20 07:06:06;;;;;;;26.10;17.70;;;18.40;99.90;;;;;;5075020;28;20036;-68
2022/05/20 07:08:32;;;;;;;22.85;16.75;;;18.50;99.90;;;;;;5073566;28;20064;-68
2022/05/20 07:11:01;;;;;;;27.00;17.92;;;18.60;99.90;;;;;;5073469;28;20024;-72
2022/05/20 07:13:31;;;;;;;24.73;17.25;;;18.60;99.90;;;;;;5076470;28;20036;-73
2022/05/20 07:15:57;;;;;;;22.58;16.40;;;18.90;99.90;;;;;;5072725;28;20032;-72
2022/05/20 07:18:27;;;;;;;24.55;17.58;;;18.90;99.90;;;;;;5075105;28;20055;-73
2022/05/20 07:20:53;;;;;;;27.23;16.65;;;19.10;99.90;;;;;;5071749;28;20046;-71
2022/05/20 07:23:19;;;;;;;22.48;16.45;;;19.10;99.90;;;;;;5076296;28;20155;-70
2022/05/20 07:25:45;;;;;;;24.08;14.82;;;19.20;99.90;;;;;;5073338;28;20040;-71
2022/05/20 07:28:10;;;;;;;27.35;16.83;;;19.30;99.90;;;;;;5076041;28;20033;-71
2022/05/20 07:30:36;;;;;;;22.67;16.38;;;19.30;99.90;;;;;;5077106;28;20107;-71
2022/05/20 07:33:02;;;;;;;22.98;17.08;;;19.40;99.90;;;;;;5077788;28;20029;-71
2022/05/20 07:35:29;;;;;;;25.55;17.58;;;19.50;99.90;;;;;;5074939;28;20039;-70
2022/05/20 07:37:55;;;;;;;25.02;18.10;;;19.60;99.90;;;;;;5073402;28;20432;-71
2022/05/20 07:40:22;;;;;;;23.38;16.98;;;19.60;99.90;;;;;;5075721;28;20036;-72
2022/05/20 07:42:47;;;;;;;24.08;18.55;;;19.70;99.90;;;;;;5073985;28;20569;-70
2022/05/20 07:45:15;;;;;;;20.85;16.42;;;19.80;99.90;;;;;;5067247;28;20029;-70
2022/05/20 07:47:42;;;;;;;22.25;16.92;;;19.80;99.90;;;;;;5072899;28;20116;-71
2022/05/20 07:50:08;;;;;;;22.42;17.45;;;20.00;99.90;;;;;;5073074;28;20028;-70
2022/05/20 07:55:24;;;;;;;22.52;16.45;;;20.10;99.90;;;;;;5076621;28;20470;-71
2022/05/20 07:57:50;;;;;;;20.15;16.35;;;20.10;99.90;;;;;;5073930;28;20051;-71
2022/05/20 08:00:16;;;;;;;27.83;17.30;;;20.20;99.90;;;;;;5074477;28;20075;-72
2022/05/20 08:02:43;;;;;;;23.67;16.25;;;20.30;99.90;;;;;;5076426;28;20049;-71
2022/05/20 08:05:10;;;;;;;23.20;15.55;;;20.30;99.90;;;;;;5072726;28;20028;-71
2022/05/20 08:07:44;;;;;;;19.98;15.30;;;20.30;99.90;;;;;;5074458;28;20051;-71
2022/05/20 08:10:19;;;;;;;23.30;17.05;;;20.40;99.90;;;;;;5072236;28;20032;-69
2022/05/20 08:12:46;;;;;;;23.45;17.88;;;20.50;99.90;;;;;;5070833;28;20041;-70
2022/05/20 08:15:12;;;;;;;22.73;16.88;;;20.80;99.90;;;;;;5076048;28;20477;-71
2022/05/20 08:17:40;;;;;;;28.15;16.77;;;20.90;99.90;;;;;;5074421;28;20035;-72
2022/05/20 08:20:21;;;;;;;26.90;17.80;;;21.00;99.90;;;;;;5073846;28;20060;-70
2022/05/20 08:22:48;;;;;;;24.05;18.20;;;21.20;99.90;;;;;;5069998;28;20029;-71
2022/05/20 08:25:13;;;;;;;30.70;17.40;;;21.00;99.90;;;;;;5073429;28;20024;-70
2022/05/20 08:27:39;;;;;;;23.20;18.38;;;21.00;99.90;;;;;;5084518;28;20032;-70
2022/05/20 08:30:09;;;;;;;29.23;18.15;;;21.10;99.90;;;;;;5074836;28;20040;-70
2022/05/20 08:32:35;;;;;;;24.58;17.73;;;21.10;99.90;;;;;;5073111;28;20028;-70
2022/05/20 08:35:03;;;;;;;25.13;18.80;;;21.00;99.90;;;;;;5073590;28;20062;-70
2022/05/20 08:37:30;;;;;;;24.75;20.00;;;21.10;99.90;;;;;;5073165;28;20028;-69
2022/05/20 08:39:56;;;;;;;28.15;19.10;;;21.10;99.90;;;;;;5072762;28;20040;-69
2022/05/20 08:42:27;;;;;;;23.38;18.23;;;21.10;99.90;;;;;;5071928;28;20035;-69
2022/05/20 08:44:53;;;;;;;28.00;18.50;;;21.10;99.90;;;;;;5075169;28;20064;-71
2022/05/20 08:47:26;;;;;;;31.10;19.42;;;21.20;99.90;;;;;;5071324;28;20052;-72
2022/05/20 08:49:57;;;;;;;34.53;22.48;;;21.30;99.90;;;;;;5070383;28;20115;-71
2022/05/20 08:52:23;;;;;;;31.42;22.33;;;21.30;99.90;;;;;;5073555;28;20028;-72
2022/05/20 08:54:49;;;;;;;36.22;24.83;;;21.50;99.90;;;;;;5073751;28;20032;-72
2022/05/20 08:57:19;;;;;;;33.45;22.40;;;21.50;99.90;;;;;;5070937;28;20025;-71
2022/05/20 08:59:45;;;;;;;27.05;22.38;;;21.70;99.90;;;;;;5069254;28;20068;-72
2022/05/20 09:02:11;;;;;;;32.58;23.77;;;21.80;99.90;;;;;;5070327;28;20056;-72
2022/05/20 09:04:37;;;;;;;32.63;24.00;;;21.80;99.90;;;;;;5070561;28;20029;-72
2022/05/20 09:07:09;;;;;;;29.83;22.88;;;21.80;99.90;;;;;;5061336;28;20063;-71
2022/05/20 09:09:38;;;;;;;;;;;21.80;99.90;;;;;;5064247;28;20152;-69
2022/05/20 09:12:04;;;;;;;28.52;20.88;;;21.90;99.90;;;;;;5050850;28;19978;-71
2022/05/20 09:17:23;;;;;;;31.23;23.42;;;21.80;99.90;;;;;;5066849;28;20119;-71
2022/05/20 09:20:01;;;;;;;33.13;24.25;;;21.60;99.90;;;;;;5068597;28;20028;-71
2022/05/20 09:22:33;;;;;;;31.73;22.95;;;21.80;99.90;;;;;;5072716;28;20040;-71
2022/05/20 09:24:59;;;;;;;33.42;23.85;;;22.00;99.90;;;;;;5073423;28;20115;-72
2022/05/20 09:27:36;;;;;;;28.80;22.95;;;22.00;99.90;;;;;;5078322;28;20036;-73
2022/05/20 09:30:06;;;;;;;29.23;21.98;;;22.00;99.90;;;;;;5077716;28;20424;-71
2022/05/20 09:32:43;;;;;;;33.28;22.67;;;22.30;99.90;;;;;;5070710;28;20036;-71
2022/05/20 09:35:22;;;;;;;38.72;23.67;;;22.10;99.90;;;;;;5074881;28;20110;-72
2022/05/20 09:37:53;;;;;;;34.65;22.35;;;22.10;99.90;;;;;;5065131;28;20056;-72
2022/05/20 09:40:32;;;;;;;34.88;23.23;;;22.30;99.90;;;;;;5066578;28;20033;-71
2022/05/20 09:43:21;;;;;;;33.95;22.05;;;22.50;99.90;;;;;;5067096;28;20089;-72
2022/05/20 09:45:49;;;;;;;31.92;20.85;;;22.70;99.90;;;;;;5077075;28;20020;-71
2022/05/20 09:48:47;;;;;;;38.33;21.15;;;22.90;99.90;;;;;;5073766;28;20036;-71
2022/05/20 09:51:28;;;;;;;36.45;21.77;;;22.90;99.90;;;;;;5072974;28;20378;-72
2022/05/20 09:54:09;;;;;;;32.97;22.65;;;22.90;99.90;;;;;;5076472;28;20037;-72
2022/05/20 09:56:44;;;;;;;34.35;22.25;;;23.10;99.90;;;;;;5073283;28;20051;-71
2022/05/20 09:59:22;;;;;;;30.55;21.73;;;23.00;99.90;;;;;;5079612;28;20510;-71
2022/05/20 10:02:27;;;;;;;35.03;21.50;;;23.00;99.90;;;;;;5066943;28;20032;-72
2022/05/20 10:05:11;;;;;;;26.73;19.33;;;23.30;99.90;;;;;;5073524;28;20113;-72
2022/05/20 10:07:43;;;;;;;29.35;21.45;;;23.50;99.90;;;;;;5072358;28;20104;-72
2022/05/20 10:10:18;;;;;;;30.63;22.98;;;23.50;99.90;;;;;;5074066;28;20039;-71
2022/05/20 10:12:47;;;;;;;33.55;23.02;;;23.50;99.90;;;;;;5067048;28;20036;-71
2022/05/20 10:15:24;;;;;;;29.77;22.90;;;23.50;99.90;;;;;;5082445;28;20028;-72
2022/05/20 10:18:07;;;;;;;36.38;27.00;;;23.50;99.90;;;;;;5080042;28;20024;-72
2022/05/20 10:21:08;;;;;;;34.88;24.42;;;23.70;99.90;;;;;;5078046;28;20471;-72
2022/05/20 10:23:52;;;;;;;34.30;24.98;;;24.00;99.90;;;;;;5075507;28;20520;-72
2022/05/20 10:26:36;;;;;;;32.83;23.30;;;24.10;99.90;;;;;;5070571;28;20047;-71
2022/05/20 10:32:49;;;;;;;36.67;26.45;;;24.30;99.90;;;;;;5082899;28;20503;-72
2022/05/20 10:35:20;;;;;;;40.10;25.58;;;24.50;99.90;;;;;;5070763;28;20041;-72
2022/05/20 10:38:09;;;;;;;38.35;27.83;;;24.40;99.90;;;;;;5076302;28;20028;-72
2022/05/20 10:40:57;;;;;;;38.67;28.73;;;24.20;99.90;;;;;;5083061;28;20036;-71
2022/05/20 10:49:42;;;;;;;38.20;31.38;;;24.10;99.90;;;;;;5061628;28;20131;-72
2022/05/20 10:52:20;;;;;;;42.47;30.48;;;24.10;99.90;;;;;;5064818;28;20139;-72
2022/05/20 10:54:58;;;;;;;35.38;27.58;;;24.00;99.90;;;;;;5065067;28;20062;-72
2022/05/20 10:57:45;;;;;;;34.53;27.33;;;24.10;99.90;;;;;;5062116;28;20033;-71
2022/05/20 11:00:18;;;;;;;33.92;25.20;;;24.30;99.90;;;;;;5061333;28;20090;-72
2022/05/20 11:03:18;;;;;;;35.75;27.55;;;24.40;99.90;;;;;;5062086;28;20025;-72
2022/05/20 11:06:18;;;;;;;36.95;25.70;;;24.50;99.90;;;;;;5067090;28;20036;-72
2022/05/20 11:09:07;;;;;;;38.95;27.88;;;24.60;99.90;;;;;;5065423;28;20108;-72
2022/05/20 11:11:37;;;;;;;36.10;27.38;;;24.60;99.90;;;;;;5066150;28;20021;-72
2022/05/20 11:14:17;;;;;;;39.60;29.27;;;24.40;99.90;;;;;;5062862;28;20130;-71
2022/05/20 11:16:49;;;;;;;43.88;30.52;;;24.40;99.90;;;;;;5068528;28;20036;-72
2022/05/20 11:20:00;;;;;;;39.30;29.50;;;24.30;99.90;;;;;;5076477;28;20122;-72
2022/05/20 11:22:47;;;;;;;43.60;28.73;;;24.20;99.90;;;;;;5074541;28;20289;-72
2022/05/20 11:25:31;;;;;;;44.40;33.42;;;24.40;99.90;;;;;;5076710;28;20094;-72
2022/05/20 11:28:18;;;;;;;41.08;28.52;;;24.30;99.90;;;;;;5075005;28;20037;-72
2022/05/20 11:30:53;;;;;;;41.58;30.40;;;24.40;99.90;;;;;;5079026;28;20040;-72
2022/05/20 11:33:37;;;;;;;42.45;30.38;;;24.40;99.90;;;;;;5077556;28;20032;-72
2022/05/20 11:36:15;;;;;;;43.80;30.70;;;24.20;99.90;;;;;;5077674;28;20064;-72
2022/05/20 11:39:02;;;;;;;46.42;33.33;;;24.20;99.90;;;;;;5074298;28;20597;-72
2022/05/20 11:41:50;;;;;;;47.55;36.47;;;24.10;99.90;;;;;;5080137;28;20040;-72
2022/05/20 11:44:42;;;;;;;53.97;34.40;;;23.90;99.90;;;;;;5077220;28;20078;-72
2022/05/20 11:47:13;;;;;;;52.75;38.42;;;23.70;99.90;;;;;;5077805;28;20060;-72
2022/05/20 11:50:07;;;;;;;54.75;36.38;;;23.70;99.90;;;;;;5068651;28;20040;-72
2022/05/20 11:52:41;;;;;;;51.30;34.65;;;23.60;99.90;;;;;;5081407;28;20062;-72
2022/05/20 11:55:26;;;;;;;48.22;35.05;;;23.50;99.90;;;;;;5076630;28;20107;-72
2022/05/20 11:58:05;;;;;;;50.90;38.88;;;23.40;99.90;;;;;;5074765;28;20028;-72
2022/05/20 12:00:35;;;;;;;51.53;36.38;;;23.40;99.90;;;;;;5078481;28;20037;-73
2022/05/20 12:03:22;;;;;;;69.45;43.78;;;23.30;99.90;;;;;;5078497;28;20366;-73
2022/05/20 12:05:49;;;;;;;62.83;41.88;;;23.10;99.90;;;;;;5068643;28;20025;-74
2022/05/20 12:08:37;;;;;;;68.10;47.17;;;23.00;99.90;;;;;;5069295;28;20036;-73
2022/05/20 12:11:29;;;;;;;72.55;47.88;;;22.80;99.90;;;;;;5082299;28;20020;-73
2022/05/20 12:14:02;;;;;;;76.10;51.93;;;22.70;99.90;;;;;;5076167;28;20453;-73
2022/05/20 12:16:29;;;;;;;73.70;50.28;;;22.50;99.90;;;;;;5074401;28;20058;-72
2022/05/20 12:24:51;;;;;;;96.00;58.20;;;22.30;99.90;;;;;;5078925;28;20613;-74
2022/05/20 12:27:23;;;;;;;63.08;46.58;;;22.10;99.90;;;;;;5080646;28;20081;-75
2022/05/20 12:29:55;;;;;;;47.83;36.85;;;22.00;99.90;;;;;;5077801;28;20029;-74
2022/05/20 12:32:44;;;;;;;106.68;58.78;;;21.80;99.90;;;;;;5074820;28;20051;-73
2022/05/20 12:35:12;;;;;;;81.82;54.22;;;21.70;99.90;;;;;;5076768;28;20044;-72
2022/05/20 12:37:40;;;;;;;88.65;61.72;;;21.90;99.90;;;;;;5067388;28;20078;-72
2022/05/20 12:40:38;;;;;;;96.18;61.72;;;21.70;99.90;;;;;;5073552;28;20523;-73
2022/05/20 12:43:04;;;;;;;109.38;74.75;;;21.50;99.90;;;;;;5074505;28;20048;-72
2022/05/20 12:45:52;;;;;;;93.35;64.53;;;21.60;99.90;;;;;;5079031;28;20024;-71
2022/05/20 12:48:23;;;;;;;76.05;53.85;;;21.50;99.90;;;;;;5072802;28;20093;-72
2022/05/20 12:51:07;;;;;;;50.50;36.42;;;21.60;99.90;;;;;;5067989;28;20682;-72
2022/05/20 12:53:34;;;;;;;32.92;22.67;;;21.20;99.90;;;;;;5076532;28;20016;-71
2022/05/20 12:56:00;;;;;;;35.63;25.58;;;21.10;99.90;;;;;;5078811;28;20035;-71
2022/05/20 12:58:31;;;;;;;21.38;15.98;;;21.10;99.90;;;;;;5081748;28;20020;-71
2022/05/20 13:01:04;;;;;;;20.70;14.15;;;21.10;99.90;;;;;;5076190;28;20094;-71
2022/05/20 13:03:43;;;;;;;19.70;12.73;;;21.00;99.90;;;;;;5078452;28;20016;-71
2022/05/20 13:06:18;;;;;;;13.13;10.32;;;21.10;99.90;;;;;;5070826;28;20059;-72
2022/05/20 13:09:02;;;;;;;10.38;8.82;;;21.20;99.90;;;;;;5076825;28;20031;-72
2022/05/20 13:11:40;;;;;;;11.43;7.28;;;21.40;99.90;;;;;;5071421;28;20043;-73
2022/05/20 13:14:13;;;;;;;12.50;6.80;;;21.40;99.90;;;;;;5073912;28;20181;-73
2022/05/20 13:16:39;;;;;;;;;;;21.40;99.90;;;;;;5071284;28;20020;-72
2022/05/20 13:19:12;;;;;;;9.57;5.65;;;21.40;99.90;;;;;;5077571;28;20361;-72
2022/05/20 13:21:43;;;;;;;10.02;6.10;;;21.40;99.90;;;;;;5062515;28;20033;-73
2022/05/20 13:24:14;;;;;;;13.65;5.22;;;21.50;99.90;;;;;;5067649;28;20032;-73
2022/05/20 13:26:41;;;;;;;4.90;3.70;;;21.40;99.90;;;;;;5077224;28;20020;-72
2022/05/20 13:29:11;;;;;;;6.85;4.32;;;21.40;99.90;;;;;;5081710;28;20157;-72
2022/05/20 13:31:37;;;;;;;6.90;3.40;;;21.40;99.90;;;;;;5073125;28;20377;-72
2022/05/20 13:34:03;;;;;;;5.72;2.85;;;21.40;99.90;;;;;;5073077;28;20154;-72